Annabella, Utah
Current Conditions -  °F | °C
As of 11:55 AM on Friday 28 Nov 2014 (Local Time) from KDTA Reporting Station
Clear Clear  
Wind Chill: 58°   Ceiling: Unl
Heat Index: 58°   Visibility: 10mi
Dew Point: 17°   Wind: 10mph
Humidity: 20%   Direction: 200°SSW
Pressure: 30.03"   Gusts: NA
Location:  38.71°N, 112.06°W
Report Text: KDTA 281855Z AUTO 20009KT 10SM CLR 15/M08 A3003 RMK AO1 T01451083
Loading
Personal Weather Stations






























Interactive Weather Map New forecast layout! Learn more

10-Day Weather Forecast

Advertisements
Track Severe Weather on mobile